Huvudsida
METAR-TAF:

METAR-TAF

Flygplatser :

Pajala Airport

Pajala, Sverige

latitud: 67-14-44N, longitud: 023-04-08E, höjd: 165 m

Aktuellt väderrapport

Denna rapport gjordes för 30 minuter sedan, klockan 21:50 UTC
Vind 1 kt från syd
Temperatur 9°C
Fuktighet 100%
Tryck 999 hPa
Sikt 10 km eller mer

METAR: ESUP 202150Z AUTO 18001KT 9999 BKN050/// BKN060/// 09/09 Q0999

Tid: 00:20 (22:20 UTC)


TAF: saknas

Aktuella väderrapporter och prognoser från 4000 flygplatser (METAR- och TAF-rapporter).

De tillgängliga stationerna syns som gula och röda prickar på kartan.

För musen över prickarna för att se namnen på stationerna.

Klicka sedan för att få väderrapporter och prognoser.

För att ändra kartan: Klicka på de gröna knapparna med ett svart kors på för att zooma in; den gröna knappen med ett streck på för att zooma ut; eller på de gröna pilarna för angränsande kartor.


METAR-TAF: